Time;durP1;ratioP1;P1;durP2;ratioP2;P2;SDS_P1;SDS_P2;PMS_P1;PMS_P2;Temp;Humidity;BMP_temperature;BMP_pressure;BME280_temperature;BME280_humidity;BME280_pressure;Samples;Min_cycle;Max_cycle;Signal;HPM_P1;HPM_P2
2022/07/12 00:00:01;;;;;;;7.72;4.95;;;;;;;;;;4961458;28;20126;-66
2022/07/12 00:02:28;;;;;;;8.50;5.47;;;;;;;;;;4960167;28;20043;-65
2022/07/12 00:04:56;;;;;;;8.00;6.00;;;;;;;;;;4959169;28;20629;-66
2022/07/12 00:07:24;;;;;;;7.20;5.15;;;;;;;;;;4958969;28;20434;-66
2022/07/12 00:09:51;;;;;;;6.28;5.28;;;;;;;;;;4965447;28;20046;-66
2022/07/12 00:12:19;;;;;;;7.70;6.47;;;;;;;;;;4962839;28;20141;-65
2022/07/12 00:14:46;;;;;;;9.85;5.78;;;;;;;;;;4947854;28;20059;-66
2022/07/12 00:17:13;;;;;;;9.07;5.68;;;;;;;;;;4961640;28;20134;-66
2022/07/12 00:19:40;;;;;;;7.95;5.38;;;;;;;;;;4962772;28;20051;-66
2022/07/12 00:22:07;;;;;;;7.25;6.00;;;;;;;;;;4965996;28;20105;-66
2022/07/12 00:24:36;;;;;;;8.15;5.63;;;;;;;;;;4961427;28;20413;-66
2022/07/12 00:27:03;;;;;;;8.82;6.18;;;;;;;;;;4965374;28;20047;-66
2022/07/12 00:29:30;;;;;;;10.65;6.55;;;;;;;;;;4964193;28;20548;-66
2022/07/12 00:31:58;;;;;;;7.72;5.95;;;;;;;;;;4967326;28;20062;-66
2022/07/12 00:34:25;;;;;;;8.98;6.93;;;;;;;;;;4948957;28;20046;-66
2022/07/12 00:36:52;;;;;;;7.63;6.32;;;;;;;;;;4967069;28;20057;-66
2022/07/12 00:39:19;;;;;;;8.30;6.90;;;;;;;;;;4966310;28;20529;-66
2022/07/12 00:41:50;;;;;;;6.65;5.55;;;;;;;;;;4967186;28;20050;-66
2022/07/12 00:44:17;;;;;;;6.72;6.05;;;;;;;;;;4959677;28;20506;-66
2022/07/12 00:46:45;;;;;;;6.30;5.70;;;;;;;;;;4963807;28;20117;-65
2022/07/12 00:49:15;;;;;;;6.10;5.50;;;;;;;;;;4969573;28;20093;-67
2022/07/12 00:51:42;;;;;;;9.15;6.20;;;;;;;;;;4961471;28;20089;-66
2022/07/12 00:54:10;;;;;;;7.43;6.60;;;;;;;;;;4965232;28;20051;-66
2022/07/12 00:56:37;;;;;;;8.30;7.43;;;;;;;;;;4965024;28;20047;-66
2022/07/12 00:59:06;;;;;;;8.30;7.10;;;;;;;;;;4963304;28;20498;-66
2022/07/12 01:01:33;;;;;;;8.80;7.07;;;;;;;;;;4965281;28;20102;-66
2022/07/12 01:04:00;;;;;;;9.52;8.30;;;;;;;;;;4965703;28;20055;-66
2022/07/12 01:06:27;;;;;;;8.18;7.28;;;;;;;;;;4968390;28;20052;-66
2022/07/12 01:08:55;;;;;;;11.07;7.97;;;;;;;;;;4964682;28;20059;-65
2022/07/12 01:11:22;;;;;;;11.18;9.20;;;;;;;;;;4968039;28;20709;-66
2022/07/12 01:13:50;;;;;;;12.55;9.52;;;;;;;;;;4966525;28;20109;-65
2022/07/12 01:16:19;;;;;;;15.00;9.85;;;;;;;;;;4962568;28;20059;-66
2022/07/12 01:18:46;;;;;;;27.65;11.05;;;;;;;;;;4952315;28;20058;-66
2022/07/12 01:21:17;;;;;;;66.32;10.73;;;;;;;;;;4964352;28;20637;-66
2022/07/12 01:23:46;;;;;;;248.63;12.90;;;;;;;;;;4964406;28;20046;-66
2022/07/12 01:26:13;;;;;;;12.52;9.80;;;;;;;;;;4964792;28;20130;-66
2022/07/12 01:28:40;;;;;;;102.30;10.80;;;;;;;;;;4961016;28;20059;-66
2022/07/12 01:31:08;;;;;;;46.33;10.95;;;;;;;;;;4961962;28;20057;-67
2022/07/12 01:33:35;;;;;;;140.65;12.63;;;;;;;;;;4962086;28;20054;-66
2022/07/12 01:36:02;;;;;;;124.68;11.73;;;;;;;;;;4964529;28;20062;-66
2022/07/12 01:38:29;;;;;;;77.32;11.10;;;;;;;;;;4968730;28;20058;-66
2022/07/12 01:40:58;;;;;;;34.90;9.75;;;;;;;;;;4981043;28;20112;-66
2022/07/12 01:43:25;;;;;;;252.75;12.68;;;;;;;;;;4983614;28;20050;-66
2022/07/12 01:45:53;;;;;;;35.92;10.75;;;;;;;;;;4984506;28;20042;-66
2022/07/12 01:48:20;;;;;;;25.80;10.98;;;;;;;;;;4984466;28;20050;-66
2022/07/12 01:50:48;;;;;;;117.03;11.40;;;;;;;;;;4966462;28;20136;-66
2022/07/12 01:53:17;;;;;;;40.55;10.57;;;;;;;;;;4984432;28;20078;-66
2022/07/12 01:55:44;;;;;;;62.28;11.20;;;;;;;;;;4984688;28;20113;-66
2022/07/12 01:58:13;;;;;;;31.38;10.00;;;;;;;;;;4967901;28;20057;-65
2022/07/12 02:00:41;;;;;;;86.20;9.80;;;;;;;;;;4983669;28;21440;-66
2022/07/12 02:03:08;;;;;;;112.57;9.80;;;;;;;;;;4984089;28;20101;-66
2022/07/12 02:05:36;;;;;;;35.17;10.13;;;;;;;;;;4983924;28;20180;-65
2022/07/12 02:08:03;;;;;;;119.95;10.77;;;;;;;;;;4980151;28;20050;-66
2022/07/12 02:10:30;;;;;;;44.15;9.25;;;;;;;;;;4983169;28;20050;-66
2022/07/12 02:12:59;;;;;;;29.88;11.55;;;;;;;;;;4982771;28;20055;-67
2022/07/12 02:15:27;;;;;;;126.95;16.27;;;;;;;;;;4983477;28;20129;-66
2022/07/12 02:17:54;;;;;;;59.47;13.52;;;;;;;;;;4988579;28;20046;-66
2022/07/12 02:20:22;;;;;;;48.22;12.00;;;;;;;;;;4982828;28;20050;-66
2022/07/12 02:22:49;;;;;;;82.47;11.18;;;;;;;;;;4983063;28;20050;-66
2022/07/12 02:25:17;;;;;;;237.30;12.27;;;;;;;;;;4983388;28;20042;-66
2022/07/12 02:27:44;;;;;;;71.75;11.50;;;;;;;;;;4983696;28;20104;-66
2022/07/12 02:30:12;;;;;;;115.22;9.88;;;;;;;;;;4980570;28;20462;-65
2022/07/12 02:32:41;;;;;;;144.40;11.20;;;;;;;;;;4982134;28;20050;-66
2022/07/12 02:35:08;;;;;;;116.72;11.55;;;;;;;;;;4982076;28;20789;-66
2022/07/12 02:37:36;;;;;;;171.35;12.55;;;;;;;;;;4983349;28;20485;-66
2022/07/12 02:42:56;;;;;;;24.48;10.35;;;;;;;;;;4962283;28;20050;-66
2022/07/12 02:45:23;;;;;;;13.50;9.60;;;;;;;;;;4982916;28;20073;-66
2022/07/12 02:47:52;;;;;;;27.88;9.05;;;;;;;;;;4982506;28;20057;-67
2022/07/12 02:50:19;;;;;;;16.70;8.90;;;;;;;;;;4980749;28;20116;-66
2022/07/12 02:52:46;;;;;;;15.95;8.20;;;;;;;;;;4965190;28;20171;-66
2022/07/12 02:55:13;;;;;;;17.95;9.32;;;;;;;;;;4981945;28;20097;-65
2022/07/12 02:57:40;;;;;;;18.63;10.23;;;;;;;;;;4983061;28;20043;-65
2022/07/12 03:00:08;;;;;;;14.43;8.88;;;;;;;;;;4981688;28;20104;-67
2022/07/12 03:02:36;;;;;;;13.77;9.45;;;;;;;;;;4983651;28;20060;-66
2022/07/12 03:05:05;;;;;;;12.98;9.13;;;;;;;;;;4984134;28;20074;-65
2022/07/12 03:07:32;;;;;;;13.13;9.27;;;;;;;;;;4982240;28;20054;-66
2022/07/12 03:09:59;;;;;;;19.48;9.73;;;;;;;;;;4982482;28;20050;-65
2022/07/12 03:12:26;;;;;;;22.45;8.98;;;;;;;;;;4980227;28;20413;-65
2022/07/12 03:14:53;;;;;;;15.23;8.15;;;;;;;;;;4963800;28;20046;-66
2022/07/12 03:17:21;;;;;;;13.50;7.72;;;;;;;;;;4979370;28;20047;-66
2022/07/12 03:19:48;;;;;;;11.85;7.18;;;;;;;;;;4982860;28;20046;-66
2022/07/12 03:22:16;;;;;;;17.70;7.90;;;;;;;;;;4982496;28;20050;-66
2022/07/12 03:24:43;;;;;;;35.25;7.35;;;;;;;;;;4976565;28;20042;-66
2022/07/12 03:27:11;;;;;;;16.80;7.50;;;;;;;;;;4982224;28;20061;-66
2022/07/12 03:29:39;;;;;;;22.98;6.80;;;;;;;;;;4980844;28;20058;-66
2022/07/12 03:32:07;;;;;;;20.30;6.35;;;;;;;;;;4982258;28;20129;-65
2022/07/12 03:34:34;;;;;;;13.93;7.18;;;;;;;;;;4978581;28;20046;-66
2022/07/12 03:37:01;;;;;;;6.70;5.55;;;;;;;;;;4981828;28;20054;-65
2022/07/12 03:39:30;;;;;;;10.20;5.75;;;;;;;;;;4982395;28;20055;-66
2022/07/12 03:41:57;;;;;;;12.45;7.00;;;;;;;;;;4979837;28;20053;-66
2022/07/12 03:44:24;;;;;;;16.55;6.75;;;;;;;;;;4962864;28;20057;-66
2022/07/12 03:46:51;;;;;;;13.70;5.82;;;;;;;;;;4981472;28;20109;-66
2022/07/12 03:49:19;;;;;;;13.40;6.43;;;;;;;;;;4986399;28;20464;-65
2022/07/12 03:51:46;;;;;;;12.43;6.22;;;;;;;;;;4982179;28;20116;-65
2022/07/12 03:54:13;;;;;;;10.00;5.85;;;;;;;;;;4974239;28;20101;-66
2022/07/12 03:59:41;;;;;;;9.77;6.18;;;;;;;;;;4903793;29;20056;-66
2022/07/12 04:02:08;;;;;;;11.77;7.00;;;;;;;;;;4909665;29;20048;-66
2022/07/12 04:04:35;;;;;;;9.52;6.63;;;;;;;;;;4942194;28;20687;-66
2022/07/12 04:07:02;;;;;;;9.13;6.57;;;;;;;;;;4992773;28;20110;-66
2022/07/12 04:09:30;;;;;;;7.70;5.78;;;;;;;;;;4985951;28;20113;-65
2022/07/12 04:11:58;;;;;;;7.78;5.90;;;;;;;;;;4981525;28;20062;-65
2022/07/12 04:14:26;;;;;;;6.85;5.32;;;;;;;;;;4986576;28;20050;-66
2022/07/12 04:16:53;;;;;;;5.43;4.72;;;;;;;;;;4990654;28;20068;-66
2022/07/12 04:19:23;;;;;;;9.55;5.80;;;;;;;;;;4985714;28;20092;-66
2022/07/12 04:21:51;;;;;;;6.57;4.70;;;;;;;;;;4984251;28;20160;-66
2022/07/12 04:24:18;;;;;;;7.32;4.93;;;;;;;;;;4985341;28;20057;-65
2022/07/12 04:26:45;;;;;;;6.35;4.80;;;;;;;;;;4986569;28;20339;-66
2022/07/12 04:29:14;;;;;;;5.65;4.50;;;;;;;;;;4985544;28;20061;-66
2022/07/12 04:31:41;;;;;;;5.50;3.72;;;;;;;;;;4986290;28;20058;-66
2022/07/12 04:34:08;;;;;;;5.53;3.72;;;;;;;;;;4981678;28;20058;-66
2022/07/12 04:36:35;;;;;;;4.93;3.67;;;;;;;;;;4981539;28;20066;-66
2022/07/12 04:39:02;;;;;;;4.20;3.55;;;;;;;;;;4985311;28;20054;-66
2022/07/12 04:41:30;;;;;;;4.90;3.80;;;;;;;;;;4983571;28;20047;-66
2022/07/12 04:43:57;;;;;;;5.55;3.40;;;;;;;;;;4983313;28;20486;-66
2022/07/12 04:46:25;;;;;;;6.30;3.60;;;;;;;;;;4983208;28;20038;-66
2022/07/12 04:48:53;;;;;;;4.45;3.60;;;;;;;;;;4985702;28;20588;-66
2022/07/12 04:51:20;;;;;;;4.55;3.15;;;;;;;;;;4985080;28;20058;-65
2022/07/12 04:53:48;;;;;;;5.60;3.13;;;;;;;;;;4984990;28;20046;-66
2022/07/12 04:56:15;;;;;;;5.10;3.45;;;;;;;;;;4976794;28;20463;-66
2022/07/12 04:58:42;;;;;;;4.70;3.10;;;;;;;;;;4987926;28;20117;-66
2022/07/12 05:01:10;;;;;;;4.47;2.88;;;;;;;;;;4983724;28;20058;-65
2022/07/12 05:03:38;;;;;;;3.50;2.63;;;;;;;;;;4987055;28;20101;-66
2022/07/12 05:06:05;;;;;;;3.83;3.13;;;;;;;;;;4984571;28;20077;-66
2022/07/12 05:08:34;;;;;;;5.20;3.35;;;;;;;;;;4963647;28;20055;-66
2022/07/12 05:11:01;;;;;;;3.92;3.53;;;;;;;;;;4967657;28;20058;-65
2022/07/12 05:13:28;;;;;;;6.28;3.70;;;;;;;;;;4985399;28;20121;-66
2022/07/12 05:15:55;;;;;;;4.57;3.80;;;;;;;;;;4981959;28;20061;-66
2022/07/12 05:18:23;;;;;;;6.13;3.90;;;;;;;;;;4985032;28;20425;-66
2022/07/12 05:20:51;;;;;;;4.53;3.70;;;;;;;;;;4986284;28;20061;-65
2022/07/12 05:23:18;;;;;;;5.60;3.45;;;;;;;;;;4981295;28;20481;-66
2022/07/12 05:25:46;;;;;;;5.00;3.65;;;;;;;;;;4983476;28;20097;-66
2022/07/12 05:28:13;;;;;;;5.65;3.83;;;;;;;;;;4982614;28;20058;-65
2022/07/12 05:30:40;;;;;;;5.50;3.30;;;;;;;;;;4982255;28;20497;-66
2022/07/12 05:33:07;;;;;;;4.43;3.55;;;;;;;;;;4981926;28;20078;-66
2022/07/12 05:35:34;;;;;;;5.30;4.10;;;;;;;;;;4982098;28;20050;-66
2022/07/12 05:38:03;;;;;;;5.45;3.85;;;;;;;;;;4985800;28;20041;-66
2022/07/12 05:40:30;;;;;;;5.40;3.83;;;;;;;;;;4978964;28;20099;-66
2022/07/12 05:42:58;;;;;;;4.00;3.60;;;;;;;;;;4982257;28;20661;-66
2022/07/12 05:45:26;;;;;;;5.07;3.95;;;;;;;;;;4960958;28;20050;-66
2022/07/12 05:47:53;;;;;;;4.45;3.63;;;;;;;;;;4981405;28;20069;-66
2022/07/12 05:50:20;;;;;;;5.55;4.35;;;;;;;;;;4986348;28;20046;-66
2022/07/12 05:55:33;;;;;;;4.60;3.63;;;;;;;;;;4982971;28;20043;-66
2022/07/12 05:58:00;;;;;;;5.80;4.07;;;;;;;;;;4983997;28;20058;-66
2022/07/12 06:00:27;;;;;;;6.53;4.00;;;;;;;;;;4986959;28;20042;-66
2022/07/12 06:02:55;;;;;;;4.97;3.42;;;;;;;;;;4984124;28;20100;-67
2022/07/12 06:05:22;;;;;;;4.65;3.70;;;;;;;;;;4986238;28;20673;-67
2022/07/12 06:07:49;;;;;;;7.72;3.55;;;;;;;;;;4983067;28;20062;-66
2022/07/12 06:10:16;;;;;;;3.72;3.30;;;;;;;;;;4984716;28;20061;-66
2022/07/12 06:12:45;;;;;;;3.92;3.10;;;;;;;;;;4965949;28;20066;-66
2022/07/12 06:15:13;;;;;;;4.25;3.85;;;;;;;;;;4984049;28;20046;-65
2022/07/12 06:17:40;;;;;;;4.38;3.60;;;;;;;;;;4983568;28;20054;-66
2022/07/12 06:20:07;;;;;;;5.03;3.70;;;;;;;;;;4975621;28;20054;-66
2022/07/12 06:22:35;;;;;;;4.72;3.78;;;;;;;;;;4982081;28;20054;-65
2022/07/12 06:25:02;;;;;;;4.63;3.85;;;;;;;;;;4983238;28;20519;-66
2022/07/12 06:27:29;;;;;;;5.75;3.80;;;;;;;;;;4981194;28;20046;-66
2022/07/12 06:29:58;;;;;;;7.15;3.40;;;;;;;;;;4982430;28;20061;-66
2022/07/12 06:32:25;;;;;;;5.07;3.55;;;;;;;;;;4982460;28;20065;-66
2022/07/12 06:34:52;;;;;;;5.10;3.60;;;;;;;;;;4979495;28;20042;-66
2022/07/12 06:37:19;;;;;;;4.07;3.38;;;;;;;;;;4983075;28;20050;-65
2022/07/12 06:39:47;;;;;;;4.35;3.50;;;;;;;;;;4983470;28;20042;-66
2022/07/12 06:42:15;;;;;;;6.45;3.80;;;;;;;;;;4977474;28;20153;-66
2022/07/12 06:44:42;;;;;;;6.22;3.60;;;;;;;;;;4983812;28;20046;-66
2022/07/12 06:47:10;;;;;;;4.75;3.80;;;;;;;;;;4978364;28;20109;-66
2022/07/12 06:49:38;;;;;;;3.42;3.03;;;;;;;;;;4978972;28;20129;-67
2022/07/12 06:52:05;;;;;;;5.63;3.78;;;;;;;;;;4971301;28;20104;-66
2022/07/12 06:54:33;;;;;;;4.28;3.58;;;;;;;;;;4982795;28;20046;-65
2022/07/12 06:57:00;;;;;;;4.68;3.42;;;;;;;;;;4986115;28;20054;-67
2022/07/12 06:59:27;;;;;;;4.47;3.42;;;;;;;;;;4982569;28;20046;-66
2022/07/12 07:01:55;;;;;;;4.80;3.50;;;;;;;;;;4960860;28;20541;-66
2022/07/12 07:04:24;;;;;;;4.18;3.58;;;;;;;;;;4982350;28;20061;-67
2022/07/12 07:06:51;;;;;;;4.18;3.17;;;;;;;;;;4968363;28;20050;-67
2022/07/12 07:09:18;;;;;;;7.35;3.72;;;;;;;;;;4981971;28;20053;-66
2022/07/12 07:11:46;;;;;;;3.90;3.25;;;;;;;;;;4982477;28;20072;-65
2022/07/12 07:14:13;;;;;;;4.13;3.20;;;;;;;;;;4988531;28;20050;-66
2022/07/12 07:16:40;;;;;;;3.70;3.22;;;;;;;;;;4961702;28;20057;-66
2022/07/12 07:19:08;;;;;;;3.80;3.20;;;;;;;;;;4982081;28;20050;-66
2022/07/12 07:21:36;;;;;;;9.82;5.05;;;;;;;;;;4982768;28;20054;-67
2022/07/12 07:24:04;;;;;;;3.42;3.13;;;;;;;;;;4984125;28;20081;-66
2022/07/12 07:26:32;;;;;;;6.70;3.60;;;;;;;;;;4987872;28;20558;-66
2022/07/12 07:31:44;;;;;;;5.97;3.28;;;;;;;;;;4979699;28;20195;-67
2022/07/12 07:34:12;;;;;;;3.60;3.00;;;;;;;;;;4990221;28;20050;-66
2022/07/12 07:36:40;;;;;;;6.28;3.33;;;;;;;;;;4988182;28;20061;-66
2022/07/12 07:39:08;;;;;;;4.93;3.10;;;;;;;;;;4985565;28;20125;-66
2022/07/12 07:41:35;;;;;;;4.10;3.35;;;;;;;;;;4982780;28;20134;-67
2022/07/12 07:44:02;;;;;;;5.00;3.83;;;;;;;;;;4985390;28;20046;-67
2022/07/12 07:46:29;;;;;;;3.92;3.50;;;;;;;;;;4969915;28;20049;-65
2022/07/12 07:48:57;;;;;;;3.72;3.38;;;;;;;;;;4987809;28;20046;-67
2022/07/12 07:51:24;;;;;;;4.15;3.72;;;;;;;;;;4984681;28;20646;-66
2022/07/12 07:53:52;;;;;;;8.50;4.38;;;;;;;;;;4986935;28;20724;-67
2022/07/12 07:56:20;;;;;;;5.05;3.92;;;;;;;;;;4985076;28;20057;-67
2022/07/12 07:58:47;;;;;;;4.60;4.20;;;;;;;;;;4968030;28;20057;-66
2022/07/12 08:01:14;;;;;;;4.43;4.00;;;;;;;;;;4984371;28;20050;-66
2022/07/12 08:03:41;;;;;;;5.40;3.97;;;;;;;;;;4981107;28;20058;-67
2022/07/12 08:06:08;;;;;;;5.95;4.13;;;;;;;;;;4983118;28;20042;-66
2022/07/12 08:08:36;;;;;;;6.63;4.00;;;;;;;;;;4982007;28;20062;-66
2022/07/12 08:11:04;;;;;;;7.03;4.63;;;;;;;;;;4981467;28;20587;-66
2022/07/12 08:13:32;;;;;;;7.30;4.65;;;;;;;;;;4961144;28;20043;-67
2022/07/12 08:15:59;;;;;;;5.60;4.63;;;;;;;;;;4980914;28;20050;-66
2022/07/12 08:18:26;;;;;;;5.22;3.97;;;;;;;;;;4980817;28;20834;-66
2022/07/12 08:20:53;;;;;;;5.88;4.32;;;;;;;;;;4981687;28;20053;-67
2022/07/12 08:23:21;;;;;;;5.10;4.15;;;;;;;;;;4981574;28;20066;-66
2022/07/12 08:25:48;;;;;;;5.20;4.38;;;;;;;;;;4982107;28;20042;-67
2022/07/12 08:28:17;;;;;;;8.50;4.78;;;;;;;;;;4986641;28;20058;-67
2022/07/12 08:30:44;;;;;;;4.75;4.30;;;;;;;;;;4981699;28;20050;-66
2022/07/12 08:33:11;;;;;;;7.43;4.20;;;;;;;;;;4980679;28;20058;-66
2022/07/12 08:35:38;;;;;;;5.28;4.57;;;;;;;;;;4981300;28;20043;-66
2022/07/12 08:38:05;;;;;;;6.13;4.70;;;;;;;;;;4981414;28;20105;-66
2022/07/12 08:40:33;;;;;;;8.73;4.97;;;;;;;;;;4983893;28;20054;-66
2022/07/12 08:43:00;;;;;;;6.50;4.80;;;;;;;;;;4974910;28;20066;-67
2022/07/12 08:45:29;;;;;;;5.53;5.03;;;;;;;;;;4985741;28;20078;-66
2022/07/12 08:47:56;;;;;;;9.40;5.25;;;;;;;;;;4985932;28;20050;-66
2022/07/12 08:50:25;;;;;;;4.90;4.18;;;;;;;;;;4986215;28;20109;-66
2022/07/12 08:52:53;;;;;;;6.25;4.70;;;;;;;;;;4981177;28;20038;-67
2022/07/12 08:55:21;;;;;;;6.03;5.10;;;;;;;;;;4983388;28;20046;-67
2022/07/12 08:57:49;;;;;;;6.28;4.90;;;;;;;;;;4982467;28;20049;-67
2022/07/12 09:00:16;;;;;;;7.18;5.05;;;;;;;;;;4989657;28;20375;-67
2022/07/12 09:02:50;;;;;;;6.88;4.70;;;;;;;;;;4970778;28;20046;-66
2022/07/12 09:05:18;;;;;;;6.38;4.53;;;;;;;;;;4985649;28;20480;-67
2022/07/12 09:07:45;;;;;;;8.23;5.07;;;;;;;;;;4985335;28;20042;-66
2022/07/12 09:10:14;;;;;;;8.20;5.18;;;;;;;;;;4984338;28;20055;-66
2022/07/12 09:12:41;;;;;;;7.28;4.82;;;;;;;;;;4987320;28;20528;-66
2022/07/12 09:15:12;;;;;;;6.38;5.00;;;;;;;;;;4985541;28;20125;-66
2022/07/12 09:17:39;;;;;;;5.03;4.43;;;;;;;;;;4986037;28;20152;-67
2022/07/12 09:20:10;;;;;;;8.43;5.00;;;;;;;;;;4984748;28;20113;-67
2022/07/12 09:22:38;;;;;;;7.50;4.82;;;;;;;;;;4983382;28;20042;-67
2022/07/12 09:25:17;;;;;;;6.40;4.38;;;;;;;;;;4970585;28;20054;-67
2022/07/12 09:27:49;;;;;;;8.10;4.95;;;;;;;;;;4984472;28;20061;-67
2022/07/12 09:30:16;;;;;;;10.73;4.80;;;;;;;;;;4984903;28;20134;-67
2022/07/12 09:38:25;;;;;;;10.00;4.60;;;;;;;;;;4984269;28;20046;-66
2022/07/12 09:40:53;;;;;;;7.00;5.25;;;;;;;;;;4964086;28;21316;-67
2022/07/12 09:43:20;;;;;;;7.72;5.45;;;;;;;;;;4984347;28;20054;-67
2022/07/12 09:45:48;;;;;;;5.88;4.95;;;;;;;;;;4984557;28;20053;-67
2022/07/12 09:48:16;;;;;;;7.03;5.20;;;;;;;;;;4984200;28;20129;-66
2022/07/12 09:50:46;;;;;;;5.68;4.25;;;;;;;;;;4989303;28;20081;-66
2022/07/12 09:53:15;;;;;;;11.07;5.78;;;;;;;;;;4984839;28;20058;-66
2022/07/12 09:55:43;;;;;;;7.88;5.00;;;;;;;;;;4983732;28;20050;-66
2022/07/12 09:58:10;;;;;;;9.02;5.20;;;;;;;;;;4984227;28;20129;-66
2022/07/12 10:00:38;;;;;;;7.28;4.60;;;;;;;;;;4969633;28;20061;-67
2022/07/12 10:03:05;;;;;;;11.10;4.95;;;;;;;;;;4984679;28;20065;-67
2022/07/12 10:05:34;;;;;;;8.15;5.20;;;;;;;;;;4980220;28;20050;-67
2022/07/12 10:08:03;;;;;;;8.85;5.38;;;;;;;;;;4966256;28;20046;-67
2022/07/12 10:10:30;;;;;;;5.68;4.82;;;;;;;;;;4978401;28;20061;-66
2022/07/12 10:12:58;;;;;;;6.13;5.35;;;;;;;;;;4983876;28;20046;-67
2022/07/12 10:15:27;;;;;;;7.22;6.07;;;;;;;;;;4983215;28;20054;-67
2022/07/12 10:17:55;;;;;;;10.32;6.47;;;;;;;;;;4979293;28;20054;-66
2022/07/12 10:20:26;;;;;;;7.60;5.50;;;;;;;;;;4977766;28;20117;-67
2022/07/12 10:22:54;;;;;;;6.75;5.40;;;;;;;;;;4983252;28;20050;-67
2022/07/12 10:25:32;;;;;;;6.18;5.50;;;;;;;;;;4984170;28;20125;-66
2022/07/12 10:27:59;;;;;;;6.95;5.07;;;;;;;;;;4981780;28;20043;-67
2022/07/12 10:30:26;;;;;;;8.60;6.25;;;;;;;;;;4965143;28;20295;-66
2022/07/12 10:32:57;;;;;;;6.32;5.40;;;;;;;;;;4981227;28;20063;-67
2022/07/12 10:35:24;;;;;;;6.28;4.97;;;;;;;;;;4983367;28;20441;-67
2022/07/12 10:38:10;;;;;;;9.35;5.35;;;;;;;;;;4962155;28;20149;-67
2022/07/12 10:40:39;;;;;;;5.68;4.80;;;;;;;;;;4983435;28;20053;-67
2022/07/12 10:43:21;;;;;;;9.20;5.05;;;;;;;;;;4967117;28;20062;-66
2022/07/12 10:45:49;;;;;;;7.45;4.78;;;;;;;;;;4982250;28;20050;-66
2022/07/12 10:48:23;;;;;;;6.45;4.97;;;;;;;;;;4978971;28;20046;-66
2022/07/12 10:50:57;;;;;;;5.70;4.88;;;;;;;;;;4982786;28;20105;-67
2022/07/12 10:53:33;;;;;;;7.22;4.20;;;;;;;;;;4984508;28;20509;-67
2022/07/12 10:56:09;;;;;;;7.07;4.50;;;;;;;;;;4981361;28;20146;-66
2022/07/12 10:58:37;;;;;;;8.50;4.72;;;;;;;;;;4980786;28;20078;-66
2022/07/12 11:01:06;;;;;;;5.75;4.63;;;;;;;;;;4985470;28;20056;-67
2022/07/12 11:03:34;;;;;;;6.50;5.35;;;;;;;;;;4983893;28;20046;-66
2022/07/12 11:06:03;;;;;;;5.07;4.00;;;;;;;;;;4982222;28;20058;-67
2022/07/12 11:08:30;;;;;;;5.10;4.55;;;;;;;;;;4982126;28;20042;-67
2022/07/12 11:10:57;;;;;;;6.30;5.00;;;;;;;;;;4959938;28;20112;-66
2022/07/12 11:13:26;;;;;;;5.60;4.93;;;;;;;;;;4982571;28;20046;-67
2022/07/12 11:15:57;;;;;;;5.55;4.47;;;;;;;;;;4985369;28;20050;-68
2022/07/12 11:18:29;;;;;;;6.13;4.85;;;;;;;;;;4983484;28;20480;-66
2022/07/12 11:20:56;;;;;;;4.50;4.05;;;;;;;;;;4980166;28;20086;-67
2022/07/12 11:23:24;;;;;;;6.72;4.45;;;;;;;;;;4982318;28;20050;-67
2022/07/12 11:25:51;;;;;;;6.93;4.60;;;;;;;;;;4980586;28;20073;-67
2022/07/12 11:28:19;;;;;;;8.30;5.63;;;;;;;;;;4981741;28;20042;-67
2022/07/12 11:30:51;;;;;;;6.70;5.00;;;;;;;;;;4981483;28;20137;-67
2022/07/12 11:33:18;;;;;;;5.97;5.18;;;;;;;;;;4982888;28;20054;-67
2022/07/12 11:35:46;;;;;;;6.10;5.35;;;;;;;;;;4982391;28;20058;-67
2022/07/12 11:38:14;;;;;;;8.85;6.10;;;;;;;;;;4979050;28;20050;-67
2022/07/12 11:40:41;;;;;;;5.90;4.80;;;;;;;;;;4983685;28;20065;-67
2022/07/12 11:43:08;;;;;;;6.72;4.10;;;;;;;;;;4960401;28;20095;-67
2022/07/12 11:45:36;;;;;;;9.40;5.72;;;;;;;;;;4980494;28;20050;-67
2022/07/12 11:48:05;;;;;;;6.00;4.05;;;;;;;;;;4983013;28;20062;-67
2022/07/12 11:50:34;;;;;;;4.72;3.60;;;;;;;;;;4982748;28;20073;-67
2022/07/12 11:53:01;;;;;;;5.00;3.00;;;;;;;;;;4960163;28;20141;-67
2022/07/12 11:55:28;;;;;;;3.40;3.10;;;;;;;;;;4980589;28;20070;-67
2022/07/12 11:58:05;;;;;;;3.70;2.67;;;;;;;;;;4983188;28;20493;-67
2022/07/12 12:00:32;;;;;;;3.35;2.63;;;;;;;;;;4986171;28;20049;-67
2022/07/12 12:02:59;;;;;;;5.47;3.10;;;;;;;;;;4982005;28;20663;-66
2022/07/12 12:05:28;;;;;;;4.53;2.67;;;;;;;;;;4987580;28;20058;-68
2022/07/12 12:07:55;;;;;;;3.22;2.80;;;;;;;;;;4981991;28;20050;-67
2022/07/12 12:10:23;;;;;;;5.45;2.80;;;;;;;;;;4982213;28;20050;-65
2022/07/12 12:12:51;;;;;;;5.15;3.45;;;;;;;;;;4987001;28;20049;-65
2022/07/12 12:15:18;;;;;;;5.38;2.95;;;;;;;;;;4985610;28;20047;-64
2022/07/12 12:17:47;;;;;;;3.63;2.40;;;;;;;;;;4987169;28;20109;-64
2022/07/12 12:20:15;;;;;;;5.53;3.63;;;;;;;;;;4966724;28;20141;-64
2022/07/12 12:22:44;;;;;;;12.57;2.90;;;;;;;;;;4984851;28;20046;-65
2022/07/12 12:25:14;;;;;;;4.43;2.63;;;;;;;;;;4984672;28;20050;-65
2022/07/12 12:27:42;;;;;;;4.53;3.40;;;;;;;;;;4968308;28;20474;-66
2022/07/12 12:30:10;;;;;;;5.93;4.00;;;;;;;;;;4982828;28;20054;-66
2022/07/12 12:32:44;;;;;;;5.43;3.70;;;;;;;;;;4984851;28;20047;-67
2022/07/12 12:35:12;;;;;;;6.70;4.30;;;;;;;;;;4984043;28;20061;-65
2022/07/12 12:37:40;;;;;;;4.93;3.42;;;;;;;;;;4984757;28;20065;-66
2022/07/12 12:40:09;;;;;;;3.78;3.40;;;;;;;;;;4967506;28;20073;-64
2022/07/12 12:42:37;;;;;;;7.43;4.93;;;;;;;;;;4983126;28;20057;-64
2022/07/12 12:45:05;;;;;;;7.28;4.80;;;;;;;;;;4980912;28;20044;-64
2022/07/12 12:47:52;;;;;;;6.57;5.20;;;;;;;;;;4970425;28;20042;-65
2022/07/12 12:50:36;;;;;;;6.68;4.68;;;;;;;;;;4983933;28;20506;-65
2022/07/12 12:53:07;;;;;;;6.25;4.50;;;;;;;;;;4984403;28;20540;-65
2022/07/12 12:55:36;;;;;;;6.28;4.40;;;;;;;;;;4984666;28;20103;-65
2022/07/12 12:58:03;;;;;;;5.65;5.05;;;;;;;;;;4987008;28;20121;-64
2022/07/12 13:00:31;;;;;;;10.55;5.70;;;;;;;;;;4984772;28;20065;-65
2022/07/12 13:02:59;;;;;;;7.30;5.07;;;;;;;;;;4985832;28;20042;-65
2022/07/12 13:05:26;;;;;;;8.05;6.38;;;;;;;;;;4986264;28;20054;-67
2022/07/12 13:07:54;;;;;;;8.43;5.43;;;;;;;;;;4981801;28;20325;-67
2022/07/12 13:10:21;;;;;;;6.47;5.45;;;;;;;;;;4984668;28;20804;-67
2022/07/12 13:12:50;;;;;;;9.77;7.07;;;;;;;;;;4984626;28;20052;-67
2022/07/12 13:15:17;;;;;;;11.77;6.50;;;;;;;;;;4983977;28;20058;-67
2022/07/12 13:17:44;;;;;;;6.40;5.80;;;;;;;;;;4982088;28;20050;-66
2022/07/12 13:20:12;;;;;;;10.73;5.43;;;;;;;;;;4984887;28;20133;-67
2022/07/12 13:22:40;;;;;;;7.85;6.20;;;;;;;;;;4984159;28;20050;-67
2022/07/12 13:25:08;;;;;;;8.40;5.60;;;;;;;;;;4983853;28;20058;-68
2022/07/12 13:27:35;;;;;;;6.75;5.68;;;;;;;;;;4984385;28;20082;-66
2022/07/12 13:30:05;;;;;;;7.03;4.85;;;;;;;;;;4966906;28;20155;-68
2022/07/12 13:32:33;;;;;;;7.68;5.05;;;;;;;;;;4966365;28;20085;-68
2022/07/12 13:35:00;;;;;;;8.05;6.03;;;;;;;;;;4980696;28;20105;-68
2022/07/12 13:37:27;;;;;;;11.73;5.78;;;;;;;;;;4983313;28;20085;-68
2022/07/12 13:40:14;;;;;;;7.53;5.72;;;;;;;;;;4965229;28;20061;-67
2022/07/12 13:42:43;;;;;;;7.75;4.45;;;;;;;;;;4984622;28;20168;-67
2022/07/12 13:45:13;;;;;;;9.18;5.63;;;;;;;;;;4983441;28;20121;-67
2022/07/12 13:47:40;;;;;;;12.40;5.82;;;;;;;;;;4983089;28;20057;-68
2022/07/12 13:50:08;;;;;;;7.57;5.70;;;;;;;;;;4983073;28;20062;-67
2022/07/12 13:52:35;;;;;;;8.18;5.90;;;;;;;;;;4983103;28;20046;-67
2022/07/12 13:55:03;;;;;;;11.25;7.90;;;;;;;;;;4984881;28;20053;-68
2022/07/12 13:57:30;;;;;;;12.40;7.78;;;;;;;;;;4983481;28;20050;-68
2022/07/12 13:59:58;;;;;;;11.45;7.32;;;;;;;;;;4985426;28;20042;-66
2022/07/12 14:02:27;;;;;;;8.52;6.57;;;;;;;;;;4981376;28;20058;-67
2022/07/12 14:04:54;;;;;;;8.18;6.72;;;;;;;;;;4983383;28;20797;-67
2022/07/12 14:07:22;;;;;;;9.07;7.05;;;;;;;;;;4983796;28;20113;-67
2022/07/12 14:09:49;;;;;;;7.82;5.30;;;;;;;;;;4981233;28;20061;-67
2022/07/12 14:12:16;;;;;;;9.05;6.80;;;;;;;;;;4983099;28;20286;-67
2022/07/12 14:17:30;;;;;;;8.32;6.53;;;;;;;;;;4969738;28;20053;-68
2022/07/12 14:19:57;;;;;;;9.20;6.60;;;;;;;;;;4980326;28;20049;-68
2022/07/12 14:22:24;;;;;;;7.15;5.50;;;;;;;;;;4982565;28;20618;-68
2022/07/12 14:24:51;;;;;;;9.93;5.82;;;;;;;;;;4976692;28;20121;-68
2022/07/12 14:27:19;;;;;;;12.05;6.03;;;;;;;;;;4979858;28;20054;-67
2022/07/12 14:29:46;;;;;;;10.45;7.00;;;;;;;;;;4983156;28;20105;-68
2022/07/12 14:32:13;;;;;;;9.02;7.00;;;;;;;;;;4983178;28;20091;-68
2022/07/12 14:34:42;;;;;;;9.60;5.68;;;;;;;;;;4981948;28;20667;-66
2022/07/12 14:37:09;;;;;;;9.55;6.60;;;;;;;;;;4983449;28;20050;-68
2022/07/12 14:39:38;;;;;;;12.35;6.55;;;;;;;;;;4983536;28;20053;-67
2022/07/12 14:42:06;;;;;;;11.90;5.97;;;;;;;;;;4982428;28;20426;-67
2022/07/12 14:44:33;;;;;;;9.55;5.57;;;;;;;;;;4982965;28;20057;-67
2022/07/12 14:47:00;;;;;;;11.90;5.70;;;;;;;;;;4979989;28;20049;-66
2022/07/12 14:49:28;;;;;;;6.78;5.57;;;;;;;;;;4982415;28;20746;-68
2022/07/12 14:51:57;;;;;;;8.13;5.88;;;;;;;;;;4982131;28;20693;-68
2022/07/12 14:54:24;;;;;;;9.73;5.95;;;;;;;;;;4979883;28;20519;-68
2022/07/12 14:56:52;;;;;;;11.60;6.28;;;;;;;;;;4982310;28;20128;-68
2022/07/12 14:59:19;;;;;;;10.65;6.47;;;;;;;;;;4982646;28;20050;-68
2022/07/12 15:01:46;;;;;;;7.40;6.38;;;;;;;;;;4982154;28;20791;-67